Time;durP1;ratioP1;P1;durP2;ratioP2;P2;SDS_P1;SDS_P2;PMS_P1;PMS_P2;Temp;Humidity;BMP_temperature;BMP_pressure;BME280_temperature;BME280_humidity;BME280_pressure;Samples;Min_cycle;Max_cycle;Signal;HPM_P1;HPM_P2
2023/11/09 00:01:12;;;;;;;3.78;2.70;;;;;;;;;;5011659;28;20054;-83
2023/11/09 00:03:43;;;;;;;5.43;2.97;;;;;;;;;;5016182;28;20392;-83
2023/11/09 00:06:11;;;;;;;4.25;3.10;;;;;;;;;;4994628;28;20049;-83
2023/11/09 00:08:43;;;;;;;4.13;3.20;;;;;;;;;;5016886;28;20038;-83
2023/11/09 00:11:12;;;;;;;6.15;3.95;;;;;;;;;;4996017;28;20061;-83
2023/11/09 00:13:39;;;;;;;3.45;2.90;;;;;;;;;;5013563;28;20042;-83
2023/11/09 00:16:07;;;;;;;4.28;2.83;;;;;;;;;;4998392;28;20061;-83
2023/11/09 00:18:37;;;;;;;3.97;2.65;;;;;;;;;;5016404;28;20508;-83
2023/11/09 00:21:09;;;;;;;4.60;3.70;;;;;;;;;;4992318;28;20061;-83
2023/11/09 00:23:36;;;;;;;30.58;4.03;;;;;;;;;;4993680;28;20050;-83
2023/11/09 00:26:08;;;;;;;3.70;3.22;;;;;;;;;;5015223;28;20460;-83
2023/11/09 00:28:44;;;;;;;5.60;2.80;;;;;;;;;;4996907;28;20061;-83
2023/11/09 00:31:13;;;;;;;4.90;3.67;;;;;;;;;;5009069;28;20061;-83
2023/11/09 00:33:43;;;;;;;4.18;3.05;;;;;;;;;;4995854;28;20049;-83
2023/11/09 00:36:14;;;;;;;5.60;3.55;;;;;;;;;;5004206;28;20049;-83
2023/11/09 00:38:41;;;;;;;6.85;3.97;;;;;;;;;;4995575;28;20057;-83
2023/11/09 00:41:08;;;;;;;2.90;2.67;;;;;;;;;;4991448;28;20065;-83
2023/11/09 00:43:36;;;;;;;7.63;3.50;;;;;;;;;;4990945;28;20050;-83
2023/11/09 00:46:04;;;;;;;2.85;2.58;;;;;;;;;;5008038;28;20045;-82
2023/11/09 00:48:31;;;;;;;3.47;2.92;;;;;;;;;;4993162;28;20504;-83
2023/11/09 00:50:58;;;;;;;4.25;3.35;;;;;;;;;;4997366;28;20050;-83
2023/11/09 00:53:28;;;;;;;4.72;3.10;;;;;;;;;;4995219;28;20411;-83
2023/11/09 00:55:57;;;;;;;5.15;3.72;;;;;;;;;;4994438;28;20077;-83
2023/11/09 00:58:27;;;;;;;4.57;3.47;;;;;;;;;;4997019;28;20042;-83
2023/11/09 01:00:54;;;;;;;3.75;2.83;;;;;;;;;;4989268;28;20276;-83
2023/11/09 01:03:24;;;;;;;3.45;3.05;;;;;;;;;;5012955;28;20050;-83
2023/11/09 01:05:53;;;;;;;4.72;3.33;;;;;;;;;;4989362;28;20053;-83
2023/11/09 01:08:23;;;;;;;3.83;3.53;;;;;;;;;;4992446;28;20050;-83
2023/11/09 01:10:52;;;;;;;7.13;3.25;;;;;;;;;;4998291;28;20045;-83
2023/11/09 01:13:26;;;;;;;4.97;3.35;;;;;;;;;;5003989;28;20648;-83
2023/11/09 01:15:54;;;;;;;7.13;2.80;;;;;;;;;;4995820;28;20057;-83
2023/11/09 01:18:21;;;;;;;3.47;3.17;;;;;;;;;;5014182;28;20054;-83
2023/11/09 01:20:48;;;;;;;3.92;3.35;;;;;;;;;;5007669;28;20057;-83
2023/11/09 01:23:19;;;;;;;3.78;3.42;;;;;;;;;;5011870;28;20214;-83
2023/11/09 01:25:47;;;;;;;3.60;3.10;;;;;;;;;;5015409;28;20061;-83
2023/11/09 01:28:15;;;;;;;5.05;3.83;;;;;;;;;;4997631;28;20053;-83
2023/11/09 01:30:43;;;;;;;7.20;3.50;;;;;;;;;;4988553;28;20053;-83
2023/11/09 01:33:12;;;;;;;3.42;3.13;;;;;;;;;;4998594;28;20050;-83
2023/11/09 01:35:40;;;;;;;12.70;2.85;;;;;;;;;;4995922;28;20053;-82
2023/11/09 01:38:07;;;;;;;3.15;2.75;;;;;;;;;;4981301;28;20046;-83
2023/11/09 01:40:36;;;;;;;3.45;3.05;;;;;;;;;;4995508;28;20061;-83
2023/11/09 01:43:03;;;;;;;6.55;3.42;;;;;;;;;;5010171;28;20053;-83
2023/11/09 01:45:32;;;;;;;3.60;3.00;;;;;;;;;;5002466;22;20058;-81
2023/11/09 01:47:59;;;;;;;4.00;3.50;;;;;;;;;;4995907;28;20088;-81
2023/11/09 01:50:26;;;;;;;19.27;3.88;;;;;;;;;;5005850;28;20042;-81
2023/11/09 01:52:54;;;;;;;3.80;3.38;;;;;;;;;;4989391;28;20050;-80
2023/11/09 01:55:22;;;;;;;5.20;3.55;;;;;;;;;;4990969;28;20061;-80
2023/11/09 01:57:49;;;;;;;4.20;3.33;;;;;;;;;;4993208;28;20070;-80
2023/11/09 02:00:17;;;;;;;2.88;2.40;;;;;;;;;;4968304;28;20537;-80
2023/11/09 02:02:52;;;;;;;4.97;3.25;;;;;;;;;;4970558;28;20058;-80
2023/11/09 02:05:20;;;;;;;3.50;3.05;;;;;;;;;;5009845;28;20049;-81
2023/11/09 02:07:47;;;;;;;8.80;4.00;;;;;;;;;;4993893;28;20058;-81
2023/11/09 02:10:15;;;;;;;5.80;3.97;;;;;;;;;;4994331;28;20420;-82
2023/11/09 02:12:45;;;;;;;4.38;3.50;;;;;;;;;;4976923;28;20504;-81
2023/11/09 02:15:12;;;;;;;4.65;3.80;;;;;;;;;;4994295;28;20416;-81
2023/11/09 02:17:40;;;;;;;4.25;3.53;;;;;;;;;;5008140;28;20047;-81
2023/11/09 02:20:13;;;;;;;5.57;3.65;;;;;;;;;;4987701;28;20057;-82
2023/11/09 02:22:53;;;;;;;3.33;3.03;;;;;;;;;;4971283;28;20049;-81
2023/11/09 02:25:22;;;;;;;4.55;3.25;;;;;;;;;;4993677;28;20538;-81
2023/11/09 02:27:49;;;;;;;4.47;2.83;;;;;;;;;;4992291;28;20067;-81
2023/11/09 02:30:19;;;;;;;5.00;4.10;;;;;;;;;;5010486;28;20057;-81
2023/11/09 02:32:49;;;;;;;3.83;3.08;;;;;;;;;;4991186;28;20055;-81
2023/11/09 02:35:16;;;;;;;3.80;2.92;;;;;;;;;;4994529;28;20440;-81
2023/11/09 02:37:43;;;;;;;3.15;2.60;;;;;;;;;;4994285;28;20050;-81
2023/11/09 02:40:11;;;;;;;2.97;2.58;;;;;;;;;;4977498;28;20061;-81
2023/11/09 02:42:40;;;;;;;5.07;3.58;;;;;;;;;;4976332;28;20058;-82
2023/11/09 02:45:08;;;;;;;2.83;2.53;;;;;;;;;;4985594;28;20116;-81
2023/11/09 02:47:36;;;;;;;4.70;3.03;;;;;;;;;;5004245;28;20061;-81
2023/11/09 02:50:09;;;;;;;4.60;3.90;;;;;;;;;;5001812;28;20042;-81
2023/11/09 02:52:36;;;;;;;3.05;2.72;;;;;;;;;;4991917;28;20058;-81
2023/11/09 02:55:06;;;;;;;4.28;3.83;;;;;;;;;;4969439;28;20051;-81
2023/11/09 02:57:33;;;;;;;5.88;3.25;;;;;;;;;;4973730;28;20051;-81
2023/11/09 03:00:04;;;;;;;3.72;2.63;;;;;;;;;;4968635;28;20061;-81
2023/11/09 03:02:32;;;;;;;3.95;2.78;;;;;;;;;;5006028;28;20502;-81
2023/11/09 03:04:59;;;;;;;2.97;2.47;;;;;;;;;;4990695;28;20058;-81
2023/11/09 03:07:27;;;;;;;5.88;3.50;;;;;;;;;;4983270;28;20055;-81
2023/11/09 03:09:54;;;;;;;3.13;2.53;;;;;;;;;;4976592;28;20042;-81
2023/11/09 03:12:24;;;;;;;5.13;3.45;;;;;;;;;;4982548;28;20046;-81
2023/11/09 03:14:51;;;;;;;6.07;3.25;;;;;;;;;;4988739;28;20057;-81
2023/11/09 03:17:20;;;;;;;3.67;3.13;;;;;;;;;;4990101;28;20057;-81
2023/11/09 03:19:57;;;;;;;4.05;3.28;;;;;;;;;;4986367;28;20046;-81
2023/11/09 03:22:25;;;;;;;5.55;3.53;;;;;;;;;;5004387;28;20117;-81
2023/11/09 03:24:52;;;;;;;4.68;3.17;;;;;;;;;;5013283;28;20069;-81
2023/11/09 03:27:19;;;;;;;3.33;2.78;;;;;;;;;;4980731;28;20046;-81
2023/11/09 03:29:46;;;;;;;4.25;3.75;;;;;;;;;;5002227;28;20062;-81
2023/11/09 03:32:16;;;;;;;4.72;3.60;;;;;;;;;;4982865;28;20046;-81
2023/11/09 03:34:44;;;;;;;4.32;3.40;;;;;;;;;;5007171;28;20517;-81
2023/11/09 03:37:14;;;;;;;2.60;2.28;;;;;;;;;;4985686;28;20624;-81
2023/11/09 03:39:44;;;;;;;4.85;4.18;;;;;;;;;;4979138;28;20050;-81
2023/11/09 03:42:11;;;;;;;4.03;3.45;;;;;;;;;;4977085;28;20045;-81
2023/11/09 03:44:40;;;;;;;5.05;3.47;;;;;;;;;;4980714;28;20046;-81
2023/11/09 03:47:07;;;;;;;4.38;3.25;;;;;;;;;;4978324;28;20061;-81
2023/11/09 03:49:41;;;;;;;4.80;4.32;;;;;;;;;;4979018;28;20058;-81
2023/11/09 03:52:10;;;;;;;3.85;3.47;;;;;;;;;;4993558;28;20051;-81
2023/11/09 03:54:37;;;;;;;3.85;3.40;;;;;;;;;;4983759;28;20077;-81
2023/11/09 03:57:05;;;;;;;4.20;3.10;;;;;;;;;;4985714;28;20104;-81
2023/11/09 03:59:34;;;;;;;4.03;3.25;;;;;;;;;;4983570;28;20054;-81
2023/11/09 04:02:02;;;;;;;3.30;2.78;;;;;;;;;;4990428;28;20042;-81
2023/11/09 04:04:32;;;;;;;4.43;2.55;;;;;;;;;;5003933;28;20050;-81
2023/11/09 04:06:59;;;;;;;4.15;3.58;;;;;;;;;;4985578;28;20050;-81
2023/11/09 04:09:28;;;;;;;3.83;3.08;;;;;;;;;;4997904;28;20050;-81
2023/11/09 04:11:55;;;;;;;6.88;4.00;;;;;;;;;;4978554;28;20432;-81
2023/11/09 04:14:25;;;;;;;3.00;2.67;;;;;;;;;;4977814;28;20058;-81
2023/11/09 04:16:52;;;;;;;3.17;2.88;;;;;;;;;;4991516;28;20062;-81
2023/11/09 04:19:19;;;;;;;14.50;3.72;;;;;;;;;;4994942;28;20424;-81
2023/11/09 04:21:49;;;;;;;8.27;5.22;;;;;;;;;;4990681;28;20077;-81
2023/11/09 04:24:16;;;;;;;4.22;2.47;;;;;;;;;;5004324;28;20077;-81
2023/11/09 04:26:45;;;;;;;3.78;3.47;;;;;;;;;;4990721;28;20054;-81
2023/11/09 04:29:20;;;;;;;5.57;4.00;;;;;;;;;;4992405;28;20050;-81
2023/11/09 04:31:49;;;;;;;4.40;3.47;;;;;;;;;;4992547;28;20050;-81
2023/11/09 04:34:15;;;;;;;4.57;3.78;;;;;;;;;;4991970;28;20405;-81
2023/11/09 04:36:49;;;;;;;3.78;2.65;;;;;;;;;;4993307;28;20058;-80
2023/11/09 04:39:29;;;;;;;7.57;3.13;;;;;;;;;;4994390;28;20053;-81
2023/11/09 04:41:58;;;;;;;3.90;3.13;;;;;;;;;;5006816;28;20054;-81
2023/11/09 04:44:28;;;;;;;5.50;3.15;;;;;;;;;;4990605;28;20062;-80
2023/11/09 04:46:57;;;;;;;3.35;2.92;;;;;;;;;;4994483;28;20069;-79
2023/11/09 04:49:25;;;;;;;4.40;3.40;;;;;;;;;;4996405;28;20043;-80
2023/11/09 04:52:02;;;;;;;4.50;3.22;;;;;;;;;;4991915;28;20058;-79
2023/11/09 04:54:34;;;;;;;3.50;2.78;;;;;;;;;;4999247;28;20572;-79
2023/11/09 04:58:47;;;;;;;3.33;2.83;;;;;;;;;;4981822;28;20059;-80
2023/11/09 05:08:06;;;;;;;3.92;3.03;;;;;;;;;;4977898;28;20058;-80
2023/11/09 05:10:33;;;;;;;5.43;3.50;;;;;;;;;;4976891;28;20050;-81
2023/11/09 05:13:04;;;;;;;3.60;3.30;;;;;;;;;;4990902;28;20656;-80
2023/11/09 05:15:33;;;;;;;5.78;4.35;;;;;;;;;;4988598;28;20050;-81
2023/11/09 05:18:02;;;;;;;4.35;3.95;;;;;;;;;;4983781;28;20054;-80
2023/11/09 05:20:29;;;;;;;4.30;3.90;;;;;;;;;;4985341;28;20054;-81
2023/11/09 05:23:00;;;;;;;3.40;3.10;;;;;;;;;;4989537;28;20047;-80
2023/11/09 05:25:28;;;;;;;4.20;3.80;;;;;;;;;;4984565;28;20059;-80
2023/11/09 05:27:55;;;;;;;4.45;3.42;;;;;;;;;;4963936;28;20059;-80
2023/11/09 05:30:24;;;;;;;4.65;4.05;;;;;;;;;;4974809;28;20051;-81
2023/11/09 05:32:53;;;;;;;4.10;3.03;;;;;;;;;;4976569;28;20057;-80
2023/11/09 05:35:21;;;;;;;3.00;2.70;;;;;;;;;;4979214;28;20057;-80
2023/11/09 05:37:48;;;;;;;5.85;3.70;;;;;;;;;;4990766;28;20051;-80
2023/11/09 05:40:15;;;;;;;3.90;3.38;;;;;;;;;;4993787;28;20050;-80
2023/11/09 05:42:43;;;;;;;4.25;3.28;;;;;;;;;;4975220;28;20053;-80
2023/11/09 05:45:13;;;;;;;2.85;2.65;;;;;;;;;;4972997;28;20053;-80
2023/11/09 05:47:41;;;;;;;3.72;3.22;;;;;;;;;;4977672;28;20046;-80
2023/11/09 05:50:11;;;;;;;6.28;3.80;;;;;;;;;;4995091;28;20046;-81
2023/11/09 05:52:40;;;;;;;4.15;3.33;;;;;;;;;;4985988;28;20046;-81
2023/11/09 05:55:10;;;;;;;4.88;2.90;;;;;;;;;;4993619;28;20046;-81
2023/11/09 05:57:39;;;;;;;4.45;2.88;;;;;;;;;;4990732;28;20050;-81
2023/11/09 06:00:08;;;;;;;4.13;3.72;;;;;;;;;;4990057;28;20046;-81
2023/11/09 06:02:35;;;;;;;5.60;3.70;;;;;;;;;;5007418;28;20047;-81
2023/11/09 06:05:06;;;;;;;5.30;3.08;;;;;;;;;;4993681;28;20053;-81
2023/11/09 06:07:36;;;;;;;5.43;3.78;;;;;;;;;;4995276;28;20046;-81
2023/11/09 06:10:05;;;;;;;3.20;2.90;;;;;;;;;;4977514;28;20057;-80
2023/11/09 06:12:36;;;;;;;7.75;3.60;;;;;;;;;;4989826;28;20039;-81
2023/11/09 06:15:04;;;;;;;4.43;3.70;;;;;;;;;;4982804;28;20105;-81
2023/11/09 06:17:36;;;;;;;6.10;4.97;;;;;;;;;;5007766;28;20382;-80
2023/11/09 06:20:10;;;;;;;4.80;3.65;;;;;;;;;;4977095;28;20057;-81
2023/11/09 06:22:38;;;;;;;4.05;3.70;;;;;;;;;;4990246;28;20054;-81
2023/11/09 06:25:05;;;;;;;5.97;3.35;;;;;;;;;;4993511;28;20055;-80
2023/11/09 06:27:33;;;;;;;5.38;4.88;;;;;;;;;;4992633;28;20060;-81
2023/11/09 06:30:02;;;;;;;4.72;4.22;;;;;;;;;;4993833;28;20050;-81
2023/11/09 06:32:34;;;;;;;4.68;4.25;;;;;;;;;;4978648;28;20047;-81
2023/11/09 06:35:03;;;;;;;5.00;4.10;;;;;;;;;;4977083;28;20460;-80
2023/11/09 06:37:32;;;;;;;4.35;4.05;;;;;;;;;;4989388;28;20057;-81
2023/11/09 06:40:10;;;;;;;8.25;5.45;;;;;;;;;;4990182;28;20055;-80
2023/11/09 06:42:41;;;;;;;6.53;5.65;;;;;;;;;;4993327;28;20050;-80
2023/11/09 06:45:09;;;;;;;6.22;4.90;;;;;;;;;;4990884;28;20050;-80
2023/11/09 06:47:40;;;;;;;8.93;4.95;;;;;;;;;;4988958;28;20046;-81
2023/11/09 06:50:11;;;;;;;8.38;5.13;;;;;;;;;;4973707;28;20062;-81
2023/11/09 06:52:42;;;;;;;;;;;;;;;;;;4988035;28;20370;-80
2023/11/09 06:55:15;;;;;;;7.05;5.25;;;;;;;;;;4976174;28;20348;-80
2023/11/09 06:57:43;;;;;;;5.93;5.10;;;;;;;;;;4992121;28;20504;-80
2023/11/09 07:00:13;;;;;;;8.95;6.72;;;;;;;;;;4980480;28;20050;-81
2023/11/09 07:02:41;;;;;;;6.90;6.20;;;;;;;;;;4994766;28;20046;-80
2023/11/09 07:05:11;;;;;;;7.82;7.03;;;;;;;;;;4989862;28;20042;-81
2023/11/09 07:07:39;;;;;;;6.65;4.82;;;;;;;;;;4995661;28;20496;-81
2023/11/09 07:10:10;;;;;;;7.38;6.28;;;;;;;;;;5011487;28;20065;-81
2023/11/09 07:12:40;;;;;;;6.55;5.85;;;;;;;;;;4992691;28;20051;-81
2023/11/09 07:15:11;;;;;;;7.63;5.88;;;;;;;;;;4986552;28;20069;-81
2023/11/09 07:17:38;;;;;;;5.43;4.78;;;;;;;;;;4997806;28;20050;-81
2023/11/09 07:20:10;;;;;;;4.40;4.00;;;;;;;;;;4981436;28;20057;-81
2023/11/09 07:22:37;;;;;;;6.30;5.30;;;;;;;;;;4996469;28;20054;-81
2023/11/09 07:25:08;;;;;;;12.20;4.65;;;;;;;;;;4997271;28;20054;-81
2023/11/09 07:27:39;;;;;;;5.00;4.07;;;;;;;;;;4980928;28;20046;-81
2023/11/09 07:30:12;;;;;;;4.47;3.90;;;;;;;;;;4989891;28;20066;-81
2023/11/09 07:32:43;;;;;;;5.80;4.93;;;;;;;;;;4980101;28;20054;-81
2023/11/09 07:35:13;;;;;;;5.68;4.18;;;;;;;;;;4993330;28;20050;-81
2023/11/09 07:37:43;;;;;;;4.55;4.15;;;;;;;;;;4992992;28;20053;-81
2023/11/09 07:40:13;;;;;;;4.43;3.72;;;;;;;;;;4981175;28;20046;-81
2023/11/09 07:42:43;;;;;;;4.97;4.57;;;;;;;;;;4980722;28;20069;-80
2023/11/09 07:45:13;;;;;;;6.25;4.57;;;;;;;;;;5002252;22;20065;-81
2023/11/09 07:47:40;;;;;;;11.43;5.13;;;;;;;;;;4998160;28;20045;-82
2023/11/09 07:50:11;;;;;;;4.75;4.28;;;;;;;;;;4988811;28;20050;-82
2023/11/09 07:52:38;;;;;;;7.57;5.40;;;;;;;;;;5004983;28;20053;-82
2023/11/09 07:55:07;;;;;;;6.35;4.32;;;;;;;;;;4983562;28;20050;-82
2023/11/09 07:57:37;;;;;;;5.88;4.50;;;;;;;;;;4998628;28;20050;-82
2023/11/09 08:00:11;;;;;;;5.15;4.43;;;;;;;;;;4980618;28;20531;-83
2023/11/09 08:02:39;;;;;;;7.43;4.60;;;;;;;;;;5008410;28;20046;-83
2023/11/09 08:05:11;;;;;;;4.97;4.32;;;;;;;;;;4977623;28;20065;-83
2023/11/09 08:07:41;;;;;;;4.70;4.25;;;;;;;;;;4976058;28;20065;-83
2023/11/09 08:10:09;;;;;;;5.03;4.10;;;;;;;;;;4977673;28;20058;-83
2023/11/09 08:12:40;;;;;;;4.82;4.35;;;;;;;;;;4977628;28;20042;-83
2023/11/09 08:15:11;;;;;;;4.88;4.05;;;;;;;;;;4953301;28;20047;-82
2023/11/09 08:17:41;;;;;;;5.45;4.43;;;;;;;;;;4992824;28;20050;-83
2023/11/09 08:20:13;;;;;;;5.78;4.70;;;;;;;;;;4993496;28;20050;-84
2023/11/09 08:22:41;;;;;;;5.95;5.35;;;;;;;;;;4990583;28;20050;-83
2023/11/09 08:25:12;;;;;;;9.00;6.40;;;;;;;;;;4978452;28;20060;-83
2023/11/09 08:27:40;;;;;;;7.63;6.82;;;;;;;;;;4980742;28;20426;-83
2023/11/09 08:30:11;;;;;;;7.50;6.28;;;;;;;;;;4974851;28;20046;-83
2023/11/09 08:32:41;;;;;;;8.60;7.80;;;;;;;;;;4998237;28;20076;-83
2023/11/09 08:35:10;;;;;;;8.65;6.53;;;;;;;;;;4995765;28;20057;-83
2023/11/09 08:37:39;;;;;;;7.75;5.90;;;;;;;;;;4976623;28;20050;-82
2023/11/09 08:40:16;;;;;;;7.13;6.18;;;;;;;;;;4984660;28;20061;-83
2023/11/09 08:42:45;;;;;;;9.25;6.32;;;;;;;;;;4968762;28;20053;-83
2023/11/09 08:45:17;;;;;;;7.13;6.15;;;;;;;;;;4995678;28;20057;-83
2023/11/09 08:47:49;;;;;;;6.53;5.93;;;;;;;;;;4976047;28;20065;-83
2023/11/09 08:50:17;;;;;;;11.27;5.47;;;;;;;;;;4991318;28;20039;-83
2023/11/09 08:52:44;;;;;;;7.72;6.22;;;;;;;;;;4977024;28;20061;-83
2023/11/09 08:55:11;;;;;;;5.85;5.25;;;;;;;;;;4959644;28;20129;-82
2023/11/09 08:57:42;;;;;;;6.18;5.57;;;;;;;;;;4993426;28;20067;-83
2023/11/09 09:00:11;;;;;;;7.70;6.40;;;;;;;;;;4967932;28;20045;-83
2023/11/09 09:02:48;;;;;;;7.22;6.55;;;;;;;;;;4988344;28;20057;-83
2023/11/09 09:05:18;;;;;;;7.70;5.57;;;;;;;;;;4994122;28;20045;-83
2023/11/09 09:07:49;;;;;;;8.38;5.43;;;;;;;;;;4987969;28;20843;-83
2023/11/09 09:10:17;;;;;;;6.45;5.13;;;;;;;;;;4991925;28;20520;-83
2023/11/09 09:12:45;;;;;;;6.40;4.85;;;;;;;;;;4993095;28;20054;-83
2023/11/09 09:15:15;;;;;;;6.15;5.47;;;;;;;;;;4990942;28;20050;-83
2023/11/09 09:17:45;;;;;;;7.97;6.68;;;;;;;;;;4986423;28;20047;-84
2023/11/09 09:20:19;;;;;;;8.98;8.10;;;;;;;;;;4990381;28;20042;-82
2023/11/09 09:22:52;;;;;;;6.25;5.65;;;;;;;;;;4980873;28;20057;-82
2023/11/09 09:25:22;;;;;;;7.57;6.07;;;;;;;;;;4989150;28;20043;-82
2023/11/09 09:27:52;;;;;;;7.95;6.72;;;;;;;;;;4985976;28;20054;-82
2023/11/09 09:30:24;;;;;;;6.97;6.30;;;;;;;;;;4975760;28;20065;-82
2023/11/09 09:32:56;;;;;;;8.48;6.18;;;;;;;;;;4992426;28;20054;-82
2023/11/09 09:35:25;;;;;;;6.88;6.18;;;;;;;;;;4994734;28;20523;-83
2023/11/09 09:37:54;;;;;;;7.40;5.47;;;;;;;;;;4990865;28;20054;-83
2023/11/09 09:40:24;;;;;;;7.85;6.32;;;;;;;;;;4992757;28;20046;-82
2023/11/09 09:42:56;;;;;;;9.98;7.28;;;;;;;;;;4990695;28;20061;-82
2023/11/09 09:45:30;;;;;;;7.53;5.85;;;;;;;;;;4990013;28;20046;-82
2023/11/09 09:48:04;;;;;;;11.10;6.57;;;;;;;;;;4990191;28;20054;-82
2023/11/09 09:50:37;;;;;;;7.43;6.65;;;;;;;;;;4986033;28;20054;-83
2023/11/09 09:53:08;;;;;;;7.38;6.25;;;;;;;;;;4991453;28;20065;-83
2023/11/09 09:55:40;;;;;;;7.90;6.22;;;;;;;;;;4992783;28;21943;-82
2023/11/09 09:58:13;;;;;;;6.60;5.13;;;;;;;;;;4990281;28;20050;-83
2023/11/09 10:00:41;;;;;;;6.22;5.63;;;;;;;;;;4998721;28;20050;-83
2023/11/09 10:03:11;;;;;;;7.57;5.72;;;;;;;;;;4991717;28;20054;-82
2023/11/09 10:05:41;;;;;;;7.75;6.28;;;;;;;;;;4987919;28;20042;-82
2023/11/09 10:08:10;;;;;;;13.65;6.50;;;;;;;;;;4985872;28;20058;-82
2023/11/09 10:10:39;;;;;;;6.35;5.75;;;;;;;;;;4974344;28;20050;-83
2023/11/09 10:13:13;;;;;;;7.25;6.18;;;;;;;;;;4973223;28;20054;-83
2023/11/09 10:15:41;;;;;;;8.15;6.85;;;;;;;;;;4994050;28;20046;-82
2023/11/09 10:18:12;;;;;;;7.53;5.65;;;;;;;;;;4976222;28;20484;-82
2023/11/09 10:20:54;;;;;;;8.63;6.38;;;;;;;;;;4991389;28;20046;-82
2023/11/09 10:23:25;;;;;;;6.88;6.20;;;;;;;;;;4990990;28;20053;-82
2023/11/09 10:25:53;;;;;;;6.82;6.07;;;;;;;;;;4978564;28;20061;-82
2023/11/09 10:28:22;;;;;;;9.52;6.47;;;;;;;;;;4993654;28;20058;-82
2023/11/09 10:30:49;;;;;;;9.27;7.85;;;;;;;;;;4994078;28;20065;-83
2023/11/09 10:33:21;;;;;;;7.53;5.50;;;;;;;;;;4990587;28;20081;-83
2023/11/09 10:35:52;;;;;;;5.18;4.68;;;;;;;;;;5001080;28;20061;-82
2023/11/09 10:38:20;;;;;;;5.40;4.90;;;;;;;;;;4995735;28;20035;-82
2023/11/09 10:40:50;;;;;;;7.95;4.82;;;;;;;;;;4995142;28;20070;-82
2023/11/09 10:43:20;;;;;;;9.10;5.40;;;;;;;;;;4992202;28;20050;-82
2023/11/09 10:45:52;;;;;;;7.65;4.45;;;;;;;;;;4990923;28;20046;-82
2023/11/09 10:48:23;;;;;;;4.65;4.18;;;;;;;;;;4983648;28;20053;-82
2023/11/09 10:50:55;;;;;;;6.50;4.68;;;;;;;;;;4993532;28;20062;-82
2023/11/09 10:53:28;;;;;;;4.30;3.70;;;;;;;;;;4986068;28;20058;-82
2023/11/09 10:55:59;;;;;;;6.03;5.18;;;;;;;;;;4994559;28;20046;-83
2023/11/09 10:58:27;;;;;;;10.98;9.05;;;;;;;;;;4974975;28;20530;-82
2023/11/09 11:00:58;;;;;;;11.18;7.65;;;;;;;;;;4993805;28;20049;-83
2023/11/09 11:03:36;;;;;;;6.97;6.00;;;;;;;;;;4992842;28;20050;-83
2023/11/09 11:06:05;;;;;;;6.93;4.78;;;;;;;;;;5000464;28;20046;-82
2023/11/09 11:08:41;;;;;;;5.57;5.07;;;;;;;;;;4985669;28;20043;-82
2023/11/09 11:11:11;;;;;;;5.95;5.40;;;;;;;;;;4979531;28;20054;-82
2023/11/09 11:13:43;;;;;;;5.85;4.85;;;;;;;;;;4976805;28;20053;-82
2023/11/09 11:16:26;;;;;;;4.68;4.28;;;;;;;;;;4993410;28;20042;-82
2023/11/09 11:19:09;;;;;;;6.50;5.82;;;;;;;;;;5006810;28;20515;-83
2023/11/09 11:21:52;;;;;;;6.82;5.72;;;;;;;;;;4992160;28;20034;-83
2023/11/09 11:24:40;;;;;;;6.28;5.68;;;;;;;;;;4994262;28;20042;-83
2023/11/09 11:27:11;;;;;;;6.78;4.93;;;;;;;;;;4979056;28;20435;-83
2023/11/09 11:29:41;;;;;;;8.07;5.57;;;;;;;;;;4976692;28;21961;-83
2023/11/09 11:32:11;;;;;;;6.53;4.75;;;;;;;;;;4994964;28;20057;-83
2023/11/09 11:34:54;;;;;;;6.05;5.47;;;;;;;;;;4971868;28;20046;-83
2023/11/09 11:37:24;;;;;;;6.63;5.80;;;;;;;;;;4997268;28;20052;-84
2023/11/09 11:39:53;;;;;;;7.32;5.90;;;;;;;;;;4999146;28;20053;-84
2023/11/09 11:42:23;;;;;;;6.90;6.20;;;;;;;;;;4992455;28;20054;-84
2023/11/09 11:44:54;;;;;;;6.47;5.70;;;;;;;;;;4994767;28;20053;-84
2023/11/09 11:47:22;;;;;;;5.35;4.55;;;;;;;;;;4992437;28;20432;-84
2023/11/09 11:49:57;;;;;;;6.30;5.60;;;;;;;;;;4977166;28;20057;-83
2023/11/09 11:52:25;;;;;;;6.93;5.55;;;;;;;;;;4962473;28;21311;-84
2023/11/09 11:54:59;;;;;;;6.60;6.00;;;;;;;;;;4979324;28;20062;-84
2023/11/09 11:57:29;;;;;;;7.70;5.68;;;;;;;;;;4976443;28;20058;-84
2023/11/09 12:00:08;;;;;;;7.22;5.97;;;;;;;;;;4994820;28;20057;-84
2023/11/09 12:02:42;;;;;;;;;;;;;;;;;;4990170;28;20057;-83
2023/11/09 12:05:15;;;;;;;6.82;6.22;;;;;;;;;;4992420;28;19936;-84
2023/11/09 12:07:44;;;;;;;6.38;5.78;;;;;;;;;;4995350;28;20050;-83
2023/11/09 12:10:16;;;;;;;5.63;5.13;;;;;;;;;;4974359;28;20061;-84
2023/11/09 12:12:54;;;;;;;8.13;6.22;;;;;;;;;;4976521;28;20069;-83
2023/11/09 12:15:28;;;;;;;5.78;5.05;;;;;;;;;;4992465;28;20057;-83
2023/11/09 12:17:55;;;;;;;6.38;5.80;;;;;;;;;;4976381;28;20057;-84
2023/11/09 12:20:26;;;;;;;6.45;5.15;;;;;;;;;;4991982;28;20050;-84
2023/11/09 12:22:55;;;;;;;8.48;6.68;;;;;;;;;;4996113;28;20058;-84
2023/11/09 12:25:26;;;;;;;7.28;5.50;;;;;;;;;;4977763;28;20069;-84
2023/11/09 12:27:53;;;;;;;5.80;5.13;;;;;;;;;;4991979;28;20508;-84
2023/11/09 12:30:23;;;;;;;6.07;4.82;;;;;;;;;;4998496;28;20061;-84
2023/11/09 12:32:53;;;;;;;11.13;6.30;;;;;;;;;;4972678;28;20620;-84
2023/11/09 12:35:21;;;;;;;5.60;5.05;;;;;;;;;;4976642;28;20069;-84
2023/11/09 12:38:01;;;;;;;6.57;4.95;;;;;;;;;;4976002;28;20050;-84
2023/11/09 12:40:28;;;;;;;8.32;7.07;;;;;;;;;;4991257;28;20515;-84
2023/11/09 12:43:00;;;;;;;5.38;4.22;;;;;;;;;;4991560;28;20053;-84
2023/11/09 12:45:37;;;;;;;2.40;1.90;;;;;;;;;;4985333;28;20069;-84
2023/11/09 12:48:08;;;;;;;2.65;1.80;;;;;;;;;;4975050;28;20051;-84
2023/11/09 12:50:35;;;;;;;2.03;1.40;;;;;;;;;;4993810;28;20057;-84
2023/11/09 12:53:08;;;;;;;2.47;1.42;;;;;;;;;;4990947;28;20061;-84
2023/11/09 12:55:37;;;;;;;1.63;1.02;;;;;;;;;;4991173;28;20046;-84
2023/11/09 12:58:07;;;;;;;1.05;0.73;;;;;;;;;;4991943;28;20069;-84
2023/11/09 13:00:42;;;;;;;1.70;1.17;;;;;;;;;;4987698;28;20531;-84
2023/11/09 13:03:10;;;;;;;1.50;1.08;;;;;;;;;;4989513;28;20419;-84
2023/11/09 13:05:42;;;;;;;2.75;1.33;;;;;;;;;;4997940;28;20057;-84
2023/11/09 13:08:13;;;;;;;2.83;1.03;;;;;;;;;;4996520;28;20065;-84
2023/11/09 13:10:54;;;;;;;1.40;0.80;;;;;;;;;;4985393;28;20057;-84
2023/11/09 13:13:24;;;;;;;1.08;0.98;;;;;;;;;;4992912;28;20492;-84
2023/11/09 13:15:51;;;;;;;1.15;0.75;;;;;;;;;;4993301;28;20038;-84
2023/11/09 13:18:27;;;;;;;0.82;0.60;;;;;;;;;;4992167;28;20049;-84
2023/11/09 13:20:57;;;;;;;1.13;0.80;;;;;;;;;;4990725;28;20537;-84
2023/11/09 13:23:34;;;;;;;0.95;0.88;;;;;;;;;;4992510;28;20519;-85
2023/11/09 13:26:05;;;;;;;3.15;1.33;;;;;;;;;;4994039;28;20053;-84
2023/11/09 13:28:34;;;;;;;0.70;0.70;;;;;;;;;;4991138;28;20508;-84
2023/11/09 13:31:14;;;;;;;1.08;0.93;;;;;;;;;;4979807;28;20381;-84
2023/11/09 13:33:45;;;;;;;1.90;0.90;;;;;;;;;;4989853;28;20531;-84
2023/11/09 13:36:16;;;;;;;1.48;1.38;;;;;;;;;;4990830;28;20049;-84
2023/11/09 13:39:18;;;;;;;1.08;0.95;;;;;;;;;;4971485;28;20061;-84
2023/11/09 13:41:41;;;;;;;1.52;1.38;;;;;;;;;;4992349;28;20038;-84
2023/11/09 13:44:12;;;;;;;2.53;1.00;;;;;;;;;;4973889;28;20173;-84
2023/11/09 13:46:40;;;;;;;1.10;1.00;;;;;;;;;;5015385;22;20046;-79
2023/11/09 13:49:22;;;;;;;1.88;1.08;;;;;;;;;;4992254;28;20049;-79
2023/11/09 13:52:09;;;;;;;0.82;0.63;;;;;;;;;;4979008;28;20065;-81
2023/11/09 13:54:46;;;;;;;1.20;0.98;;;;;;;;;;4981491;28;20061;-82
2023/11/09 13:57:24;;;;;;;1.42;1.10;;;;;;;;;;4997772;28;20043;-82
2023/11/09 13:59:55;;;;;;;0.98;0.70;;;;;;;;;;4981821;28;20519;-82
2023/11/09 14:02:29;;;;;;;1.30;0.95;;;;;;;;;;4990308;28;20433;-82
2023/11/09 14:05:05;;;;;;;1.27;0.90;;;;;;;;;;4993279;28;20416;-82
2023/11/09 14:07:35;;;;;;;0.80;0.70;;;;;;;;;;4998438;28;20441;-82
2023/11/09 14:10:09;;;;;;;1.20;0.73;;;;;;;;;;4981671;28;20042;-82
2023/11/09 14:12:49;;;;;;;1.38;0.80;;;;;;;;;;4992397;28;20062;-82
2023/11/09 14:15:29;;;;;;;1.55;1.05;;;;;;;;;;4994039;28;20062;-82
2023/11/09 14:18:20;;;;;;;1.38;0.90;;;;;;;;;;4996418;28;20817;-82
2023/11/09 14:20:52;;;;;;;2.10;0.80;;;;;;;;;;4987347;28;20050;-82
2023/11/09 14:23:23;;;;;;;1.27;0.80;;;;;;;;;;4973888;28;20059;-82
2023/11/09 14:25:52;;;;;;;1.08;0.80;;;;;;;;;;4997785;28;20313;-82
2023/11/09 14:28:24;;;;;;;1.60;1.00;;;;;;;;;;4998158;28;20065;-82
2023/11/09 14:30:51;;;;;;;0.82;0.80;;;;;;;;;;4997801;28;20050;-82
2023/11/09 14:33:23;;;;;;;0.70;0.57;;;;;;;;;;4998467;28;20054;-82
2023/11/09 14:35:57;;;;;;;1.17;0.90;;;;;;;;;;4997467;28;20050;-82
2023/11/09 14:38:28;;;;;;;3.40;1.10;;;;;;;;;;4981701;28;20065;-82
2023/11/09 14:40:59;;;;;;;1.10;1.00;;;;;;;;;;4996345;28;20054;-82
2023/11/09 14:43:29;;;;;;;1.00;0.90;;;;;;;;;;4997755;28;20062;-82
2023/11/09 14:46:04;;;;;;;2.25;0.90;;;;;;;;;;4971334;28;20057;-82
2023/11/09 14:48:38;;;;;;;1.20;1.10;;;;;;;;;;4960070;28;21165;-82
2023/11/09 14:51:20;;;;;;;2.78;1.20;;;;;;;;;;4971373;28;20050;-82
2023/11/09 14:53:49;;;;;;;1.73;0.95;;;;;;;;;;4975519;28;20058;-82
2023/11/09 14:56:19;;;;;;;4.50;1.38;;;;;;;;;;4979903;28;20050;-82
2023/11/09 14:58:50;;;;;;;1.40;0.95;;;;;;;;;;4995320;28;20122;-82
2023/11/09 15:01:18;;;;;;;1.90;0.88;;;;;;;;;;4994084;28;20062;-82
2023/11/09 15:03:49;;;;;;;1.58;1.35;;;;;;;;;;4999187;28;20058;-82
2023/11/09 15:06:27;;;;;;;1.25;0.90;;;;;;;;;;5003518;28;20043;-82
2023/11/09 15:08:55;;;;;;;1.20;0.95;;;;;;;;;;4997711;28;20061;-82
2023/11/09 15:11:26;;;;;;;1.27;0.75;;;;;;;;;;5001582;28;20049;-82